TW-0009 weather

CTS (China Television System) Helipad
Taipei, Taipei (municipality), Taiwan

Public forecast

Using degrees Celsius for public forecast. Weather courtesy of forecast.io.

METAR (pilot weather report)

Closest report is Taipei Songshan Airport, 1.6 nm (2.9 km) N. Retrieved 2019/07/20 15:30 UTC (8 minutes ago):

RCSS 201530Z VRB02KT 9999 FEW010 SCT040 BKN070 29/26 Q1007 NOSIG RMK A2974

TAF (pilot weather forecast)

Closest forecast is Taipei Songshan Airport, 1.6 nm (2.9 km) N. Retrieved 2019/07/20 12:00 UTC (4 hours ago):

TAF RCSS 201100Z 2012/2112 09005KT 9999 FEW025 SCT050 BECMG 2100/2102 30005KT TEMPO 2105/2107 13009G19KT 2000 TSRA SCT006 BKN014 FEW015CB BKN030 TEMPO 2107/2110 10007KT 3500 SHRA SCT010 FEW015CB BKN024 BKN050 BECMG 2110/2112 09005KT